Time;durP1;ratioP1;P1;durP2;ratioP2;P2;SDS_P1;SDS_P2;PMS_P1;PMS_P2;Temp;Humidity;BMP_temperature;BMP_pressure;BME280_temperature;BME280_humidity;BME280_pressure;Samples;Min_cycle;Max_cycle;Signal;HPM_P1;HPM_P2
2021/06/04 00:01:12;;;;;;;4.57;3.60;;;;;;;;;;3583593;40;20045;-60
2021/06/04 00:03:38;;;;;;;8.63;4.40;;;;;;;;;;3585425;40;20368;-60
2021/06/04 00:06:06;;;;;;;7.65;4.28;;;;;;;;;;3586231;40;20039;-60
2021/06/04 00:08:31;;;;;;;5.63;4.28;;;;;;;;;;3583553;40;20037;-60
2021/06/04 00:11:05;;;;;;;7.65;4.85;;;;;;;;;;3584207;40;20055;-60
2021/06/04 00:13:56;;;;;;;6.75;5.07;;;;;;;;;;3585296;40;20071;-60
2021/06/04 00:16:30;;;;;;;5.78;4.72;;;;;;;;;;3577232;40;20388;-60
2021/06/04 00:19:01;;;;;;;8.18;5.47;;;;;;;;;;3586121;40;20137;-60
2021/06/04 00:21:32;;;;;;;12.38;5.43;;;;;;;;;;3587662;40;20118;-60
2021/06/04 00:23:59;;;;;;;7.07;5.95;;;;;;;;;;3586564;40;20302;-60
2021/06/04 00:26:25;;;;;;;6.28;5.55;;;;;;;;;;3586477;40;20147;-60
2021/06/04 00:28:52;;;;;;;7.50;6.13;;;;;;;;;;3586348;40;20040;-60
2021/06/04 00:31:18;;;;;;;6.97;6.20;;;;;;;;;;3586190;40;20032;-60
2021/06/04 00:33:43;;;;;;;8.25;7.07;;;;;;;;;;3586031;40;20028;-60
2021/06/04 00:36:10;;;;;;;8.57;7.25;;;;;;;;;;3578415;40;20098;-60
2021/06/04 00:38:36;;;;;;;9.75;6.95;;;;;;;;;;3586410;40;20033;-60
2021/06/04 00:41:19;;;;;;;9.90;7.03;;;;;;;;;;3587398;40;20798;-60
2021/06/04 00:43:46;;;;;;;7.32;6.63;;;;;;;;;;3588614;40;20051;-60
2021/06/04 00:46:11;;;;;;;9.38;7.55;;;;;;;;;;3589369;40;20044;-60
2021/06/04 00:48:37;;;;;;;7.00;6.30;;;;;;;;;;3588915;40;20438;-60
2021/06/04 00:51:20;;;;;;;7.38;6.68;;;;;;;;;;3586796;40;20052;-60
2021/06/04 00:53:47;;;;;;;10.50;6.35;;;;;;;;;;3587322;40;20045;-60
2021/06/04 00:56:12;;;;;;;17.10;7.53;;;;;;;;;;3588371;40;20048;-60
2021/06/04 00:58:43;;;;;;;7.53;6.70;;;;;;;;;;3587892;40;20060;-60
2021/06/04 01:01:09;;;;;;;;;;;;;;;;;;3587267;40;20048;-60
2021/06/04 01:03:39;;;;;;;7.95;5.68;;;;;;;;;;3587539;40;19935;-60
2021/06/04 01:06:14;;;;;;;7.17;6.23;;;;;;;;;;3588611;40;20033;-60
2021/06/04 01:09:15;;;;;;;7.57;5.75;;;;;;;;;;3585917;40;20048;-60
2021/06/04 01:11:52;;;;;;;7.10;6.35;;;;;;;;;;3585999;40;20537;-60
2021/06/04 01:14:30;;;;;;;8.95;6.82;;;;;;;;;;3579774;40;20408;-60
2021/06/04 01:17:04;;;;;;;9.18;6.90;;;;;;;;;;3586561;40;20032;-60
2021/06/04 01:19:51;;;;;;;6.47;5.65;;;;;;;;;;3586590;40;20044;-60
2021/06/04 01:22:35;;;;;;;7.13;6.22;;;;;;;;;;3585507;40;20040;-60
2021/06/04 01:25:09;;;;;;;7.70;6.20;;;;;;;;;;3586805;40;20040;-60
2021/06/04 01:27:39;;;;;;;9.55;6.80;;;;;;;;;;3587809;40;20264;-60
2021/06/04 01:30:22;;;;;;;9.13;7.33;;;;;;;;;;3584624;40;20029;-60
2021/06/04 01:32:49;;;;;;;8.57;6.10;;;;;;;;;;3587150;40;20359;-60
2021/06/04 01:35:20;;;;;;;8.98;7.20;;;;;;;;;;3587444;40;20136;-60
2021/06/04 01:37:47;;;;;;;10.70;6.10;;;;;;;;;;3578074;40;20421;-60
2021/06/04 01:40:26;;;;;;;7.10;5.85;;;;;;;;;;3583925;40;20048;-60
2021/06/04 01:42:52;;;;;;;8.05;5.63;;;;;;;;;;3586727;40;20269;-60
2021/06/04 01:45:23;;;;;;;10.45;5.40;;;;;;;;;;3587699;40;20054;-60
2021/06/04 01:48:11;;;;;;;6.70;5.65;;;;;;;;;;3585151;40;20037;-60
2021/06/04 01:51:01;;;;;;;7.70;5.90;;;;;;;;;;3578589;40;20052;-60
2021/06/04 01:53:31;;;;;;;7.80;6.13;;;;;;;;;;3586488;40;20055;-60
2021/06/04 01:56:02;;;;;;;8.60;6.60;;;;;;;;;;3587730;40;20039;-60
2021/06/04 01:58:37;;;;;;;7.18;6.47;;;;;;;;;;3587746;40;20076;-60
2021/06/04 02:01:14;;;;;;;7.38;6.45;;;;;;;;;;3588178;40;20925;-60
2021/06/04 02:03:40;;;;;;;9.70;7.22;;;;;;;;;;3586994;40;20032;-60
2021/06/04 02:06:08;;;;;;;7.60;6.38;;;;;;;;;;3587301;40;20040;-60
2021/06/04 02:08:56;;;;;;;8.68;6.47;;;;;;;;;;3586709;40;20285;-60
2021/06/04 02:11:25;;;;;;;7.80;6.40;;;;;;;;;;3586170;40;20099;-60
2021/06/04 02:13:52;;;;;;;7.68;5.97;;;;;;;;;;3583504;40;20048;-60
2021/06/04 02:16:48;;;;;;;9.95;6.70;;;;;;;;;;3586866;40;20289;-60
2021/06/04 02:19:19;;;;;;;8.27;5.60;;;;;;;;;;3586776;40;20035;-60
2021/06/04 02:22:11;;;;;;;6.72;5.90;;;;;;;;;;3587150;40;20121;-60
2021/06/04 02:24:43;;;;;;;6.55;5.68;;;;;;;;;;3578098;40;20291;-60
2021/06/04 02:27:20;;;;;;;6.53;5.82;;;;;;;;;;3588081;40;20064;-60
2021/06/04 02:29:51;;;;;;;7.88;6.47;;;;;;;;;;3585673;40;20033;-60
2021/06/04 02:32:27;;;;;;;9.75;5.72;;;;;;;;;;3586716;40;20029;-60
2021/06/04 02:35:06;;;;;;;6.93;5.95;;;;;;;;;;3586547;40;20040;-60
2021/06/04 02:37:43;;;;;;;7.00;6.13;;;;;;;;;;3587499;40;20520;-60
2021/06/04 02:40:15;;;;;;;7.93;6.47;;;;;;;;;;3586277;40;20067;-60
2021/06/04 02:42:51;;;;;;;8.20;6.35;;;;;;;;;;3585182;40;20052;-60
2021/06/04 02:45:32;;;;;;;7.53;6.63;;;;;;;;;;3587039;40;20040;-60
2021/06/04 02:48:02;;;;;;;8.80;6.22;;;;;;;;;;3585970;40;20280;-60
2021/06/04 02:50:35;;;;;;;6.43;5.82;;;;;;;;;;3577844;40;20025;-60
2021/06/04 02:53:25;;;;;;;10.07;6.32;;;;;;;;;;3586195;40;20048;-60
2021/06/04 02:56:29;;;;;;;7.43;6.07;;;;;;;;;;3586501;40;20573;-60
2021/06/04 02:59:17;;;;;;;7.45;6.75;;;;;;;;;;3585932;40;20033;-60
2021/06/04 03:02:00;;;;;;;8.70;7.00;;;;;;;;;;3585069;40;20032;-60
2021/06/04 03:04:30;;;;;;;8.02;7.15;;;;;;;;;;3586573;40;20066;-60
2021/06/04 03:06:58;;;;;;;7.90;6.80;;;;;;;;;;3576534;40;20029;-60
2021/06/04 03:09:27;;;;;;;8.40;6.70;;;;;;;;;;3584701;40;20148;-59
2021/06/04 03:11:59;;;;;;;7.43;6.63;;;;;;;;;;3585466;40;20033;-59
2021/06/04 03:14:25;;;;;;;9.98;6.20;;;;;;;;;;3586443;40;20159;-59
2021/06/04 03:16:52;;;;;;;8.02;7.22;;;;;;;;;;3584016;40;20037;-59
2021/06/04 03:19:19;;;;;;;7.60;6.80;;;;;;;;;;3584497;40;20048;-59
2021/06/04 03:21:53;;;;;;;6.72;6.07;;;;;;;;;;3577814;40;20257;-59
2021/06/04 03:24:33;;;;;;;6.85;6.05;;;;;;;;;;3585387;40;20051;-59
2021/06/04 03:27:00;;;;;;;7.63;6.82;;;;;;;;;;3587028;40;20048;-59
2021/06/04 03:29:26;;;;;;;8.07;7.07;;;;;;;;;;3586931;40;20040;-59
2021/06/04 03:32:00;;;;;;;7.97;7.22;;;;;;;;;;3587461;40;20315;-59
2021/06/04 03:34:27;;;;;;;7.60;6.07;;;;;;;;;;3585151;40;20044;-59
2021/06/04 03:36:55;;;;;;;7.72;6.93;;;;;;;;;;3587373;40;20342;-59
2021/06/04 03:39:28;;;;;;;7.63;6.93;;;;;;;;;;3586718;40;20312;-60
2021/06/04 03:41:54;;;;;;;9.52;6.30;;;;;;;;;;3586416;40;20528;-60
2021/06/04 03:44:22;;;;;;;7.35;6.55;;;;;;;;;;3587695;40;20024;-60
2021/06/04 03:46:47;;;;;;;8.25;7.45;;;;;;;;;;3586269;40;20036;-60
2021/06/04 03:49:15;;;;;;;8.27;7.47;;;;;;;;;;3587320;40;20040;-60
2021/06/04 03:51:42;;;;;;;10.00;7.20;;;;;;;;;;3586412;40;20059;-60
2021/06/04 03:54:12;;;;;;;7.32;6.63;;;;;;;;;;3586627;40;20025;-59
2021/06/04 03:56:38;;;;;;;8.27;7.40;;;;;;;;;;3587748;40;20050;-60
2021/06/04 03:59:06;;;;;;;8.65;7.35;;;;;;;;;;3586442;40;20032;-60
2021/06/04 04:01:42;;;;;;;9.48;6.85;;;;;;;;;;3585624;40;20025;-59
2021/06/04 04:04:07;;;;;;;9.63;6.28;;;;;;;;;;3585598;40;20033;-60
2021/06/04 04:06:33;;;;;;;7.53;6.75;;;;;;;;;;3586992;40;20129;-59
2021/06/04 04:08:59;;;;;;;6.18;5.55;;;;;;;;;;3586548;39;20291;-59
2021/06/04 04:11:25;;;;;;;6.32;5.53;;;;;;;;;;3585194;40;20054;-60
2021/06/04 04:13:50;;;;;;;6.45;5.50;;;;;;;;;;3584393;40;20044;-60
2021/06/04 04:16:16;;;;;;;15.77;6.32;;;;;;;;;;3587240;40;20053;-59
2021/06/04 04:18:41;;;;;;;7.25;6.47;;;;;;;;;;3584337;40;20125;-59
2021/06/04 04:21:09;;;;;;;8.10;6.75;;;;;;;;;;3584863;40;20040;-59
2021/06/04 04:23:56;;;;;;;8.13;7.03;;;;;;;;;;3586001;40;20512;-60
2021/06/04 04:26:27;;;;;;;9.45;7.43;;;;;;;;;;3586040;40;20029;-60
2021/06/04 04:28:53;;;;;;;10.63;9.52;;;;;;;;;;3584037;40;20029;-59
2021/06/04 04:31:26;;;;;;;9.50;8.60;;;;;;;;;;3583618;40;20040;-59
2021/06/04 04:33:53;;;;;;;9.25;8.35;;;;;;;;;;3586947;40;20029;-59
2021/06/04 04:36:23;;;;;;;9.90;8.32;;;;;;;;;;3585601;40;20025;-59
2021/06/04 04:38:48;;;;;;;9.38;8.15;;;;;;;;;;3583804;40;20045;-59
2021/06/04 04:41:14;;;;;;;10.70;9.63;;;;;;;;;;3585509;40;20040;-59
2021/06/04 04:43:45;;;;;;;10.02;9.00;;;;;;;;;;3586301;40;20373;-59
2021/06/04 04:46:12;;;;;;;13.43;9.20;;;;;;;;;;3584365;40;20037;-59
2021/06/04 04:48:37;;;;;;;10.23;9.27;;;;;;;;;;3576282;40;20316;-60
2021/06/04 04:51:05;;;;;;;10.38;9.32;;;;;;;;;;3576965;40;20037;-59
2021/06/04 04:53:31;;;;;;;10.40;9.40;;;;;;;;;;3586295;40;20033;-60
2021/06/04 04:55:57;;;;;;;13.20;10.63;;;;;;;;;;3585466;40;20137;-60
2021/06/04 04:58:23;;;;;;;11.88;10.68;;;;;;;;;;3585449;40;20040;-59
2021/06/04 05:00:48;;;;;;;10.80;9.60;;;;;;;;;;3580789;40;20287;-59
2021/06/04 05:03:17;;;;;;;12.18;9.25;;;;;;;;;;3586102;40;20094;-59
2021/06/04 05:05:42;;;;;;;11.93;10.55;;;;;;;;;;3579686;40;20036;-59
2021/06/04 05:08:08;;;;;;;10.05;8.13;;;;;;;;;;3586147;40;20033;-59
2021/06/04 05:10:34;;;;;;;11.13;9.07;;;;;;;;;;3585170;40;20443;-59
2021/06/04 05:13:00;;;;;;;9.02;8.23;;;;;;;;;;3585607;40;20044;-59
2021/06/04 05:15:29;;;;;;;9.13;8.23;;;;;;;;;;3585228;40;20077;-59
2021/06/04 05:17:55;;;;;;;9.25;8.35;;;;;;;;;;3584575;40;20077;-58
2021/06/04 05:20:22;;;;;;;9.95;8.70;;;;;;;;;;3584790;40;20412;-58
2021/06/04 05:22:48;;;;;;;9.60;7.70;;;;;;;;;;3586717;40;20146;-60
2021/06/04 05:25:18;;;;;;;9.15;7.78;;;;;;;;;;3586873;40;20045;-60
2021/06/04 05:27:45;;;;;;;10.75;8.77;;;;;;;;;;3587666;40;20028;-59
2021/06/04 05:30:16;;;;;;;8.15;7.35;;;;;;;;;;3580465;40;20065;-59
2021/06/04 05:32:41;;;;;;;8.00;7.22;;;;;;;;;;3579803;40;20044;-59
2021/06/04 05:35:08;;;;;;;9.02;7.93;;;;;;;;;;3587756;40;20032;-60
2021/06/04 05:37:34;;;;;;;10.77;7.75;;;;;;;;;;3580735;40;20328;-59
2021/06/04 05:39:59;;;;;;;7.80;6.63;;;;;;;;;;3586360;40;20160;-60
2021/06/04 05:42:25;;;;;;;9.15;8.25;;;;;;;;;;3586437;40;20091;-60
2021/06/04 05:44:51;;;;;;;9.02;7.30;;;;;;;;;;3587084;40;20368;-60
2021/06/04 05:47:16;;;;;;;8.65;7.75;;;;;;;;;;3588448;40;20024;-58
2021/06/04 05:49:42;;;;;;;8.75;7.95;;;;;;;;;;3585961;40;20032;-59
2021/06/04 05:52:09;;;;;;;10.48;8.50;;;;;;;;;;3585362;40;20750;-59
2021/06/04 05:54:41;;;;;;;9.55;7.63;;;;;;;;;;3587742;40;20050;-60
2021/06/04 05:57:07;;;;;;;8.90;8.00;;;;;;;;;;3587233;40;20275;-59
2021/06/04 05:59:33;;;;;;;8.88;8.05;;;;;;;;;;3584357;40;20033;-60
2021/06/04 06:01:58;;;;;;;8.95;7.95;;;;;;;;;;3585700;40;20036;-59
2021/06/04 06:04:24;;;;;;;10.45;7.85;;;;;;;;;;3586150;40;20051;-59
2021/06/04 06:06:51;;;;;;;8.65;7.68;;;;;;;;;;3585722;40;20024;-60
2021/06/04 06:09:17;;;;;;;8.30;7.50;;;;;;;;;;3584244;40;20041;-60
2021/06/04 06:11:44;;;;;;;8.85;7.50;;;;;;;;;;3585727;40;20035;-60
2021/06/04 06:14:10;;;;;;;8.90;8.00;;;;;;;;;;3586125;40;20070;-59
2021/06/04 06:16:36;;;;;;;10.98;8.57;;;;;;;;;;3585424;40;20036;-59
2021/06/04 06:19:03;;;;;;;9.45;8.50;;;;;;;;;;3582983;40;20386;-59
2021/06/04 06:21:29;;;;;;;9.18;7.97;;;;;;;;;;3576862;40;20130;-59
2021/06/04 06:23:54;;;;;;;8.38;7.57;;;;;;;;;;3582127;40;20063;-59
2021/06/04 06:26:23;;;;;;;11.07;8.05;;;;;;;;;;3585910;40;20029;-59
2021/06/04 06:28:51;;;;;;;8.07;7.28;;;;;;;;;;3584902;40;20268;-59
2021/06/04 06:31:21;;;;;;;10.25;8.30;;;;;;;;;;3585891;40;20044;-59
2021/06/04 06:33:48;;;;;;;9.38;7.88;;;;;;;;;;3587039;40;20154;-59
2021/06/04 06:36:16;;;;;;;8.70;7.00;;;;;;;;;;3585980;40;20048;-59
2021/06/04 06:38:42;;;;;;;10.30;6.95;;;;;;;;;;3587088;39;20082;-60
2021/06/04 06:41:10;;;;;;;7.82;6.75;;;;;;;;;;3579982;40;20064;-60
2021/06/04 06:43:38;;;;;;;9.30;6.47;;;;;;;;;;3586740;40;20141;-59
2021/06/04 06:46:06;;;;;;;11.27;6.15;;;;;;;;;;3578470;40;20044;-60
2021/06/04 06:48:33;;;;;;;9.68;6.13;;;;;;;;;;3586432;40;20073;-59
2021/06/04 06:50:58;;;;;;;7.43;5.20;;;;;;;;;;3587420;40;20059;-58
2021/06/04 06:53:25;;;;;;;8.93;5.60;;;;;;;;;;3587854;40;20033;-59
2021/06/04 06:55:53;;;;;;;11.43;6.10;;;;;;;;;;3587491;40;20103;-60
2021/06/04 06:58:20;;;;;;;9.27;5.68;;;;;;;;;;3585344;40;20339;-59
2021/06/04 07:00:47;;;;;;;8.93;5.68;;;;;;;;;;3585976;40;20110;-59
2021/06/04 07:03:16;;;;;;;9.43;5.53;;;;;;;;;;3579229;40;20090;-60
2021/06/04 07:05:41;;;;;;;6.63;5.93;;;;;;;;;;3587079;40;20158;-60
2021/06/04 07:08:08;;;;;;;10.90;6.00;;;;;;;;;;3586266;40;20076;-60
2021/06/04 07:10:35;;;;;;;9.57;6.75;;;;;;;;;;3585551;40;20055;-60
2021/06/04 07:13:04;;;;;;;6.95;6.05;;;;;;;;;;3586078;40;20122;-60
2021/06/04 07:15:31;;;;;;;8.73;6.50;;;;;;;;;;3584303;40;20390;-60
2021/06/04 07:17:58;;;;;;;7.55;6.18;;;;;;;;;;3586170;40;20274;-60
2021/06/04 07:20:25;;;;;;;11.52;6.82;;;;;;;;;;3577312;40;20057;-60
2021/06/04 07:22:51;;;;;;;10.40;6.07;;;;;;;;;;3585354;40;20126;-60
2021/06/04 07:25:18;;;;;;;12.52;6.30;;;;;;;;;;3586366;40;20040;-58
2021/06/04 07:27:47;;;;;;;11.00;6.30;;;;;;;;;;3586258;40;20035;-59
2021/06/04 07:30:18;;;;;;;6.88;6.20;;;;;;;;;;3583852;40;20868;-58
2021/06/04 07:32:44;;;;;;;7.80;6.35;;;;;;;;;;3585549;40;20264;-59
2021/06/04 07:35:12;;;;;;;7.40;6.55;;;;;;;;;;3586447;40;20073;-59
2021/06/04 07:37:38;;;;;;;8.27;6.38;;;;;;;;;;3585095;39;20059;-59
2021/06/04 07:40:07;;;;;;;8.60;6.60;;;;;;;;;;3584278;40;20400;-60
2021/06/04 07:42:32;;;;;;;7.13;6.22;;;;;;;;;;3585879;40;20398;-60
2021/06/04 07:44:58;;;;;;;6.78;5.97;;;;;;;;;;3586791;40;20037;-59
2021/06/04 07:47:23;;;;;;;7.80;5.60;;;;;;;;;;3584414;40;20365;-59
2021/06/04 07:49:48;;;;;;;8.50;6.13;;;;;;;;;;3584097;40;20049;-59
2021/06/04 07:52:14;;;;;;;7.07;5.50;;;;;;;;;;3577233;40;20047;-59
2021/06/04 07:54:39;;;;;;;7.47;4.65;;;;;;;;;;3588514;40;20056;-59
2021/06/04 07:57:05;;;;;;;6.00;5.00;;;;;;;;;;3588164;40;20559;-59
2021/06/04 07:59:31;;;;;;;7.60;5.78;;;;;;;;;;3580805;40;20036;-59
2021/06/04 08:01:56;;;;;;;6.65;5.60;;;;;;;;;;3590775;40;20035;-59
2021/06/04 08:04:22;;;;;;;7.85;5.78;;;;;;;;;;3589025;40;20032;-59
2021/06/04 08:06:50;;;;;;;8.15;5.68;;;;;;;;;;3580211;40;20040;-59
2021/06/04 08:09:15;;;;;;;7.72;6.00;;;;;;;;;;3584515;40;20048;-59
2021/06/04 08:11:49;;;;;;;7.72;6.13;;;;;;;;;;3589535;40;20073;-59
2021/06/04 08:14:19;;;;;;;10.13;5.53;;;;;;;;;;3582188;40;20035;-59
2021/06/04 08:16:46;;;;;;;9.75;5.63;;;;;;;;;;3586937;40;20025;-59
2021/06/04 08:19:18;;;;;;;8.25;6.20;;;;;;;;;;3588087;40;20372;-59
2021/06/04 08:21:48;;;;;;;6.57;5.45;;;;;;;;;;3589664;40;20033;-59
2021/06/04 08:24:19;;;;;;;12.27;6.43;;;;;;;;;;3588997;40;20039;-59
2021/06/04 08:26:46;;;;;;;8.15;4.82;;;;;;;;;;3580592;40;20029;-59
2021/06/04 08:29:12;;;;;;;5.70;4.97;;;;;;;;;;3590295;40;20281;-59
2021/06/04 08:31:38;;;;;;;6.10;5.35;;;;;;;;;;3589713;40;20635;-59
2021/06/04 08:34:04;;;;;;;6.75;5.22;;;;;;;;;;3586774;40;20049;-59
2021/06/04 08:36:34;;;;;;;6.78;4.60;;;;;;;;;;3586321;40;20071;-59
2021/06/04 08:39:03;;;;;;;9.25;5.93;;;;;;;;;;3586161;40;20151;-59
2021/06/04 08:42:02;;;;;;;9.32;6.03;;;;;;;;;;3583221;40;20044;-59
2021/06/04 08:44:46;;;;;;;10.20;5.97;;;;;;;;;;3586460;40;20081;-59
2021/06/04 08:47:24;;;;;;;7.75;5.20;;;;;;;;;;3586474;40;20046;-59
2021/06/04 08:49:59;;;;;;;7.70;5.03;;;;;;;;;;3584026;40;20036;-59
2021/06/04 08:52:30;;;;;;;10.85;4.80;;;;;;;;;;3584613;40;20048;-58
2021/06/04 08:55:24;;;;;;;10.38;5.35;;;;;;;;;;3586339;40;20525;-59
2021/06/04 08:58:23;;;;;;;7.80;5.53;;;;;;;;;;3585053;40;20036;-59
2021/06/04 09:00:54;;;;;;;7.72;6.13;;;;;;;;;;3582909;40;20130;-59
2021/06/04 09:03:31;;;;;;;7.93;5.53;;;;;;;;;;3587911;40;20048;-59
2021/06/04 09:06:12;;;;;;;7.47;5.35;;;;;;;;;;3587054;40;20043;-59
2021/06/04 09:08:39;;;;;;;7.97;6.10;;;;;;;;;;3584981;39;20083;-59
2021/06/04 09:11:18;;;;;;;11.35;5.35;;;;;;;;;;3577392;40;20431;-59
2021/06/04 09:13:44;;;;;;;5.28;4.72;;;;;;;;;;3586603;40;20414;-59
2021/06/04 09:16:34;;;;;;;6.93;5.07;;;;;;;;;;3586411;40;20047;-59
2021/06/04 09:19:25;;;;;;;5.40;4.90;;;;;;;;;;3583011;40;20043;-59
2021/06/04 09:21:51;;;;;;;5.82;4.60;;;;;;;;;;3587077;40;20039;-59
2021/06/04 09:24:39;;;;;;;5.07;4.32;;;;;;;;;;3587771;40;20256;-59
2021/06/04 09:27:21;;;;;;;5.80;4.47;;;;;;;;;;3576835;40;20299;-59
2021/06/04 09:30:21;;;;;;;6.15;4.75;;;;;;;;;;3586170;40;20031;-59
2021/06/04 09:33:08;;;;;;;4.47;3.83;;;;;;;;;;3587073;40;20041;-59
2021/06/04 09:35:36;;;;;;;5.55;4.15;;;;;;;;;;3569816;40;20049;-60
2021/06/04 09:38:25;;;;;;;3.65;2.85;;;;;;;;;;3584415;40;20040;-58
2021/06/04 09:40:51;;;;;;;4.03;3.17;;;;;;;;;;3586503;40;20106;-59
2021/06/04 09:43:28;;;;;;;4.88;3.58;;;;;;;;;;3581273;40;20053;-59
2021/06/04 09:46:06;;;;;;;3.67;2.78;;;;;;;;;;3577210;40;20114;-59
2021/06/04 09:48:52;;;;;;;9.25;2.72;;;;;;;;;;3585623;40;20394;-59
2021/06/04 09:51:38;;;;;;;4.38;3.42;;;;;;;;;;3584706;40;20044;-59
2021/06/04 09:54:28;;;;;;;4.82;2.60;;;;;;;;;;3584984;40;20080;-59
2021/06/04 09:57:19;;;;;;;3.80;3.17;;;;;;;;;;3583255;40;20389;-59
2021/06/04 09:59:46;;;;;;;4.50;2.88;;;;;;;;;;3576147;40;20062;-62
2021/06/04 10:02:26;;;;;;;4.65;3.05;;;;;;;;;;3584537;40;20044;-62
2021/06/04 10:04:52;;;;;;;4.65;2.90;;;;;;;;;;3576112;40;20076;-62
2021/06/04 10:07:21;;;;;;;4.30;2.80;;;;;;;;;;3585558;40;20133;-63
2021/06/04 10:09:48;;;;;;;5.03;3.22;;;;;;;;;;3584509;40;20041;-62
2021/06/04 10:12:17;;;;;;;6.60;2.30;;;;;;;;;;3576824;40;20502;-62
2021/06/04 10:14:55;;;;;;;4.38;2.83;;;;;;;;;;3584390;40;20036;-62
2021/06/04 10:20:43;;;;;;;4.25;2.78;;;;;;;;;;3584452;40;20056;-62
2021/06/04 10:23:23;;;;;;;5.95;2.70;;;;;;;;;;3586126;40;20119;-62
2021/06/04 10:25:48;;;;;;;4.72;2.90;;;;;;;;;;3586781;40;20037;-62
2021/06/04 10:28:34;;;;;;;6.38;2.95;;;;;;;;;;3585919;40;20051;-62
2021/06/04 10:31:15;;;;;;;6.68;3.08;;;;;;;;;;3585266;40;20045;-62
2021/06/04 10:33:52;;;;;;;5.18;2.70;;;;;;;;;;3586594;40;20051;-62
2021/06/04 10:36:21;;;;;;;4.78;2.97;;;;;;;;;;3586131;40;20036;-62
2021/06/04 10:38:53;;;;;;;4.90;3.10;;;;;;;;;;3583845;40;20059;-62
2021/06/04 10:41:35;;;;;;;4.28;2.88;;;;;;;;;;3586049;40;20070;-62
2021/06/04 10:44:19;;;;;;;4.35;2.83;;;;;;;;;;3586606;40;20584;-63
2021/06/04 10:47:08;;;;;;;3.72;2.65;;;;;;;;;;3584077;39;20040;-62
2021/06/04 10:50:01;;;;;;;5.93;2.40;;;;;;;;;;3583617;40;20041;-66
2021/06/04 10:52:34;;;;;;;3.85;2.55;;;;;;;;;;3587263;40;20041;-55
2021/06/04 10:55:02;;;;;;;5.75;3.03;;;;;;;;;;3585334;40;20284;-55
2021/06/04 10:57:42;;;;;;;3.97;2.63;;;;;;;;;;3583718;40;20064;-55
2021/06/04 11:00:12;;;;;;;3.50;2.38;;;;;;;;;;3586916;40;20037;-57
2021/06/04 11:03:01;;;;;;;4.38;3.03;;;;;;;;;;3585961;40;20041;-56
2021/06/04 11:05:57;;;;;;;5.10;2.28;;;;;;;;;;3585459;40;20044;-56
2021/06/04 11:08:51;;;;;;;4.20;2.90;;;;;;;;;;3586423;40;20028;-54
2021/06/04 11:11:31;;;;;;;5.63;3.60;;;;;;;;;;3586910;40;20041;-57
2021/06/04 11:14:23;;;;;;;6.55;4.40;;;;;;;;;;3577486;40;20299;-55
2021/06/04 11:16:55;;;;;;;4.30;3.25;;;;;;;;;;3586588;40;20085;-57
2021/06/04 11:19:38;;;;;;;5.85;2.88;;;;;;;;;;3586387;40;20090;-58
2021/06/04 11:22:37;;;;;;;4.82;3.00;;;;;;;;;;3586414;40;20146;-57
2021/06/04 11:25:16;;;;;;;4.22;2.42;;;;;;;;;;3585654;40;20315;-58
2021/06/04 11:27:45;;;;;;;;;;;;;;;;;;3587242;40;20024;-57
2021/06/04 11:30:25;;;;;;;6.43;3.38;;;;;;;;;;3586049;40;20276;-57
2021/06/04 11:32:59;;;;;;;;;;;;;;;;;;3587216;40;20033;-56
2021/06/04 11:35:29;;;;;;;5.90;3.20;;;;;;;;;;3587337;40;19944;-58
2021/06/04 11:38:03;;;;;;;4.50;3.20;;;;;;;;;;3577321;40;20067;-58
2021/06/04 11:40:51;;;;;;;4.90;2.53;;;;;;;;;;3586327;40;20046;-59
2021/06/04 11:43:31;;;;;;;3.97;2.80;;;;;;;;;;3583395;40;20052;-59
2021/06/04 11:46:11;;;;;;;4.18;2.92;;;;;;;;;;3586145;40;20032;-59
2021/06/04 11:48:39;;;;;;;4.57;2.80;;;;;;;;;;3585697;40;20032;-58
2021/06/04 11:51:29;;;;;;;6.18;2.80;;;;;;;;;;3585495;40;20040;-58
2021/06/04 11:54:29;;;;;;;4.53;2.63;;;;;;;;;;3585212;40;20048;-58
2021/06/04 11:57:45;;;;;;;4.88;2.67;;;;;;;;;;3585543;40;20078;-59
2021/06/04 12:00:28;;;;;;;4.25;2.85;;;;;;;;;;3563760;40;20904;-57
2021/06/04 12:03:09;;;;;;;4.47;3.10;;;;;;;;;;3587066;40;20028;-58
2021/06/04 12:05:46;;;;;;;5.72;3.17;;;;;;;;;;3586402;40;20036;-58
2021/06/04 12:08:32;;;;;;;6.53;2.97;;;;;;;;;;3583863;40;20071;-57
2021/06/04 12:11:05;;;;;;;5.15;3.03;;;;;;;;;;3586094;40;20039;-56
2021/06/04 12:13:43;;;;;;;4.10;2.75;;;;;;;;;;3587071;40;20146;-57
2021/06/04 12:16:25;;;;;;;6.22;2.88;;;;;;;;;;3583833;40;20537;-58
2021/06/04 12:19:14;;;;;;;7.50;3.25;;;;;;;;;;3575454;40;20097;-59
2021/06/04 12:21:42;;;;;;;3.80;2.45;;;;;;;;;;3584191;40;20157;-59
2021/06/04 12:24:32;;;;;;;10.18;2.35;;;;;;;;;;3584858;40;20191;-59
2021/06/04 12:27:22;;;;;;;7.50;2.67;;;;;;;;;;3582122;40;20047;-59
2021/06/04 12:29:50;;;;;;;3.75;2.30;;;;;;;;;;3584498;40;20033;-57
2021/06/04 12:32:37;;;;;;;5.45;2.38;;;;;;;;;;3583520;40;20048;-60
2021/06/04 12:35:39;;;;;;;5.57;2.58;;;;;;;;;;3578709;40;20064;-60
2021/06/04 12:38:39;;;;;;;6.07;2.72;;;;;;;;;;3586667;40;20124;-59
2021/06/04 12:41:07;;;;;;;4.93;1.90;;;;;;;;;;3564812;40;20060;-59
2021/06/04 12:43:34;;;;;;;4.45;2.45;;;;;;;;;;3588420;40;20028;-58
2021/06/04 12:46:19;;;;;;;3.47;2.20;;;;;;;;;;3587642;40;20084;-59
2021/06/04 12:48:57;;;;;;;4.03;2.03;;;;;;;;;;3587518;40;20049;-58
2021/06/04 12:51:23;;;;;;;4.20;2.25;;;;;;;;;;3588714;40;20275;-59
2021/06/04 12:54:01;;;;;;;6.97;2.95;;;;;;;;;;3588007;40;20033;-58
2021/06/04 12:56:27;;;;;;;4.68;2.42;;;;;;;;;;3586820;40;20047;-59
2021/06/04 12:59:07;;;;;;;3.65;2.05;;;;;;;;;;3581462;40;20035;-60
2021/06/04 13:01:39;;;;;;;6.10;2.35;;;;;;;;;;3587883;40;20048;-59
2021/06/04 13:04:20;;;;;;;7.75;2.28;;;;;;;;;;3588711;40;20538;-60
2021/06/04 13:06:48;;;;;;;5.47;2.60;;;;;;;;;;3581321;40;20029;-60
2021/06/04 13:09:36;;;;;;;3.70;2.03;;;;;;;;;;3587282;40;20395;-58
2021/06/04 13:12:22;;;;;;;9.95;2.50;;;;;;;;;;3587340;40;20048;-58
2021/06/04 13:14:50;;;;;;;7.03;2.80;;;;;;;;;;3585836;40;20050;-58
2021/06/04 13:17:21;;;;;;;4.28;2.35;;;;;;;;;;3589172;40;20261;-59
2021/06/04 13:20:02;;;;;;;7.03;2.95;;;;;;;;;;3585292;40;20040;-59
2021/06/04 13:22:28;;;;;;;6.25;2.38;;;;;;;;;;3586327;40;20040;-59
2021/06/04 13:24:59;;;;;;;4.13;2.17;;;;;;;;;;3586466;40;20332;-58
2021/06/04 13:27:29;;;;;;;4.82;2.60;;;;;;;;;;3586509;40;20509;-58
2021/06/04 13:29:58;;;;;;;3.05;1.90;;;;;;;;;;3585370;40;20041;-59
2021/06/04 13:32:32;;;;;;;8.68;3.17;;;;;;;;;;3586535;40;20038;-59
2021/06/04 13:35:02;;;;;;;5.47;2.70;;;;;;;;;;3587633;40;20039;-59
2021/06/04 13:37:32;;;;;;;4.03;1.80;;;;;;;;;;3585163;40;20824;-60
2021/06/04 13:39:57;;;;;;;6.65;2.60;;;;;;;;;;3585613;40;20037;-58
2021/06/04 13:42:28;;;;;;;8.55;2.50;;;;;;;;;;3585844;40;20033;-58
2021/06/04 13:44:55;;;;;;;3.92;2.75;;;;;;;;;;3578729;40;20045;-59
2021/06/04 13:47:43;;;;;;;4.88;2.45;;;;;;;;;;3579018;40;20044;-59
2021/06/04 13:50:29;;;;;;;5.95;2.80;;;;;;;;;;3586437;40;20056;-59
2021/06/04 13:53:15;;;;;;;4.85;2.60;;;;;;;;;;3586535;40;20049;-59
2021/06/04 13:55:45;;;;;;;5.90;2.72;;;;;;;;;;3576701;40;20623;-59
2021/06/04 13:58:19;;;;;;;;;;;;;;;;;;3584550;40;20137;-58
2021/06/04 14:01:23;;;;;;;6.60;2.50;;;;;;;;;;3585261;40;19948;-58
2021/06/04 14:03:52;;;;;;;5.13;2.53;;;;;;;;;;3585622;40;20033;-58
2021/06/04 14:06:33;;;;;;;3.70;1.98;;;;;;;;;;3585952;40;20072;-58
2021/06/04 14:09:08;;;;;;;18.73;2.85;;;;;;;;;;3586475;40;20265;-58
2021/06/04 14:11:45;;;;;;;5.15;2.65;;;;;;;;;;3587486;40;20065;-58
2021/06/04 14:14:21;;;;;;;5.18;2.55;;;;;;;;;;3589255;40;20067;-59
2021/06/04 14:16:48;;;;;;;5.60;2.70;;;;;;;;;;3586754;40;20083;-58
2021/06/04 14:19:48;;;;;;;9.02;2.75;;;;;;;;;;3587148;40;20051;-58
2021/06/04 14:22:35;;;;;;;7.10;2.75;;;;;;;;;;3587208;40;20048;-58
2021/06/04 14:25:00;;;;;;;5.68;2.35;;;;;;;;;;3585842;40;20051;-58
2021/06/04 14:27:31;;;;;;;4.65;2.70;;;;;;;;;;3587044;40;20037;-58
2021/06/04 14:30:00;;;;;;;5.22;3.00;;;;;;;;;;3587297;40;20556;-58
2021/06/04 14:32:32;;;;;;;4.57;2.20;;;;;;;;;;3585163;40;20048;-58
2021/06/04 14:35:20;;;;;;;3.90;2.30;;;;;;;;;;3586496;40;20118;-59
2021/06/04 14:37:51;;;;;;;5.53;2.63;;;;;;;;;;3586812;40;20042;-58
2021/06/04 14:40:36;;;;;;;4.07;2.20;;;;;;;;;;3587367;40;20249;-59
2021/06/04 14:43:05;;;;;;;4.10;2.33;;;;;;;;;;3585486;40;20044;-59
2021/06/04 14:45:31;;;;;;;5.22;2.72;;;;;;;;;;3586397;40;20392;-58
2021/06/04 14:48:04;;;;;;;4.88;2.67;;;;;;;;;;3585817;40;20033;-59
2021/06/04 14:50:32;;;;;;;5.22;2.80;;;;;;;;;;3586214;40;20040;-59
2021/06/04 14:52:58;;;;;;;4.05;3.17;;;;;;;;;;3586190;40;20037;-58
2021/06/04 14:55:27;;;;;;;15.15;2.67;;;;;;;;;;3585941;40;20064;-59
2021/06/04 14:57:53;;;;;;;4.57;2.53;;;;;;;;;;3577946;40;20040;-59
2021/06/04 15:00:20;;;;;;;5.15;3.05;;;;;;;;;;3585636;40;20039;-59
2021/06/04 15:02:46;;;;;;;5.38;2.60;;;;;;;;;;3586703;40;20071;-58
2021/06/04 15:05:14;;;;;;;5.47;3.10;;;;;;;;;;3586626;40;20384;-59
2021/06/04 15:07:39;;;;;;;5.00;3.05;;;;;;;;;;3584879;40;20407;-59
2021/06/04 15:10:08;;;;;;;5.10;3.80;;;;;;;;;;3576683;40;20053;-58
2021/06/04 15:12:34;;;;;;;9.40;3.67;;;;;;;;;;3586256;40;20128;-58
2021/06/04 15:14:59;;;;;;;9.60;3.75;;;;;;;;;;3585400;40;20049;-58
2021/06/04 15:17:25;;;;;;;8.88;4.13;;;;;;;;;;3583871;40;20478;-59
2021/06/04 15:19:50;;;;;;;4.63;3.67;;;;;;;;;;3584907;40;20392;-59
2021/06/04 15:22:17;;;;;;;5.32;3.85;;;;;;;;;;3587319;40;20351;-59